Washingtonville, New York
Current Conditions -  °F | °C
As of 12:45 AM on Tuesday 27 Jan 2015 (Local Time) from KSWF Reporting Station
Light Snow Light Snow  
Wind Chill:   Ceiling: 300
Heat Index: 19°   Visibility: 2mi
Dew Point: 16°   Wind: 14mph
Humidity: 86%   Direction: 30°NNE
Pressure: 29.74"   Gusts: 21mph
Location:  41.43°N, 74.17°W
Report Text: KSWF 270545Z 03012G18KT 2SM -SN BKN003 OVC020 M07/M09 A2974
Loading
Personal Weather Stations






























Interactive Weather Map New forecast layout! Learn more

10-Day Weather Forecast

Advertisements
Track Severe Weather on mobile